sensor_id;sensor_type;location;lat;lon;timestamp;pressure;altitude;pressure_sealevel;temperature;humidity
5298;BME280;14738;42.668;23.250;2023-01-16T00:01:35;48676.19;;;-141.90;100.00
5298;BME280;14738;42.668;23.250;2023-01-16T00:04:01;48692.06;;;-141.90;100.00
5298;BME280;14738;42.668;23.250;2023-01-16T00:06:28;48686.13;;;-141.90;100.00
5298;BME280;14738;42.668;23.250;2023-01-16T00:08:53;48688.09;;;-141.90;100.00
5298;BME280;14738;42.668;23.250;2023-01-16T00:11:19;48672.22;;;-141.90;100.00
5298;BME280;14738;42.668;23.250;2023-01-16T00:13:44;48672.22;;;-141.90;100.00
5298;BME280;14738;42.668;23.250;2023-01-16T00:16:09;48688.09;;;-141.90;100.00
5298;BME280;14738;42.668;23.250;2023-01-16T00:18:35;48676.19;;;-141.90;100.00
5298;BME280;14738;42.668;23.250;2023-01-16T00:21:00;48660.31;;;-141.90;100.00
5298;BME280;14738;42.668;23.250;2023-01-16T00:23:26;48702.00;;;-141.90;100.00
5298;BME280;14738;42.668;23.250;2023-01-16T00:25:51;48670.22;;;-141.90;100.00
5298;BME280;14738;42.668;23.250;2023-01-16T00:28:17;48690.09;;;-141.90;100.00
5298;BME280;14738;42.668;23.250;2023-01-16T00:30:42;48688.09;;;-141.90;100.00
5298;BME280;14738;42.668;23.250;2023-01-16T00:33:08;48664.28;;;-141.90;100.00
5298;BME280;14738;42.668;23.250;2023-01-16T00:35:34;48682.13;;;-141.90;100.00
5298;BME280;14738;42.668;23.250;2023-01-16T00:37:59;48664.28;;;-141.90;100.00
5298;BME280;14738;42.668;23.250;2023-01-16T00:40:25;48696.03;;;-141.90;100.00
5298;BME280;14738;42.668;23.250;2023-01-16T00:42:51;48666.25;;;-141.90;100.00
5298;BME280;14738;42.668;23.250;2023-01-16T00:45:17;48668.25;;;-141.90;100.00
5298;BME280;14738;42.668;23.250;2023-01-16T00:47:42;48700.00;;;-141.90;100.00
5298;BME280;14738;42.668;23.250;2023-01-16T00:50:08;48703.97;;;-141.90;100.00
5298;BME280;14738;42.668;23.250;2023-01-16T00:52:34;48676.19;;;-141.90;100.00
5298;BME280;14738;42.668;23.250;2023-01-16T00:54:59;48684.13;;;-141.90;100.00
5298;BME280;14738;42.668;23.250;2023-01-16T00:57:25;48656.34;;;-141.90;100.00
5298;BME280;14738;42.668;23.250;2023-01-16T00:59:50;48688.09;;;-141.90;100.00
5298;BME280;14738;42.668;23.250;2023-01-16T01:02:15;48678.16;;;-141.90;100.00
5298;BME280;14738;42.668;23.250;2023-01-16T01:04:41;48696.03;;;-141.90;100.00
5298;BME280;14738;42.668;23.250;2023-01-16T01:07:06;48674.19;;;-141.90;100.00
5298;BME280;14738;42.668;23.250;2023-01-16T01:09:32;48676.19;;;-141.90;100.00
5298;BME280;14738;42.668;23.250;2023-01-16T01:11:58;48676.19;;;-141.90;100.00
5298;BME280;14738;42.668;23.250;2023-01-16T01:14:24;48684.13;;;-141.90;100.00
5298;BME280;14738;42.668;23.250;2023-01-16T01:16:49;48676.19;;;-141.90;100.00
5298;BME280;14738;42.668;23.250;2023-01-16T01:19:15;48688.09;;;-141.90;100.00
5298;BME280;14738;42.668;23.250;2023-01-16T01:21:40;48670.22;;;-141.90;100.00
5298;BME280;14738;42.668;23.250;2023-01-16T01:24:06;48658.31;;;-141.90;100.00
5298;BME280;14738;42.668;23.250;2023-01-16T01:26:31;48686.13;;;-141.90;100.00
5298;BME280;14738;42.668;23.250;2023-01-16T01:28:57;48680.16;;;-141.90;100.00
5298;BME280;14738;42.668;23.250;2023-01-16T01:31:22;48648.38;;;-141.90;100.00
5298;BME280;14738;42.668;23.250;2023-01-16T01:33:48;48660.31;;;-141.90;100.00
5298;BME280;14738;42.668;23.250;2023-01-16T01:36:13;48660.31;;;-141.90;100.00
5298;BME280;14738;42.668;23.250;2023-01-16T01:38:39;48656.34;;;-141.90;100.00
5298;BME280;14738;42.668;23.250;2023-01-16T01:41:05;48636.47;;;-141.90;100.00
5298;BME280;14738;42.668;23.250;2023-01-16T01:43:53;48688.09;;;-141.90;100.00
5298;BME280;14738;42.668;23.250;2023-01-16T01:46:28;48670.22;;;-141.90;100.00
5298;BME280;14738;42.668;23.250;2023-01-16T01:49:07;48662.28;;;-141.90;100.00
5298;BME280;14738;42.668;23.250;2023-01-16T01:51:39;48638.47;;;-141.90;100.00
5298;BME280;14738;42.668;23.250;2023-01-16T01:54:09;48656.34;;;-141.90;100.00
5298;BME280;14738;42.668;23.250;2023-01-16T01:56:43;48644.41;;;-141.90;100.00
5298;BME280;14738;42.668;23.250;2023-01-16T01:59:17;48692.06;;;-141.90;100.00
5298;BME280;14738;42.668;23.250;2023-01-16T02:01:45;48648.38;;;-141.90;100.00
5298;BME280;14738;42.668;23.250;2023-01-16T02:04:17;48640.44;;;-141.90;100.00
5298;BME280;14738;42.668;23.250;2023-01-16T02:06:50;48672.22;;;-141.90;100.00
5298;BME280;14738;42.668;23.250;2023-01-16T02:09:17;48656.34;;;-141.90;100.00
5298;BME280;14738;42.668;23.250;2023-01-16T02:11:56;48668.25;;;-141.90;100.00
5298;BME280;14738;42.668;23.250;2023-01-16T02:14:24;48626.56;;;-141.90;100.00
5298;BME280;14738;42.668;23.250;2023-01-16T02:16:59;48620.59;;;-141.90;100.00
5298;BME280;14738;42.668;23.250;2023-01-16T02:38:42;48684.13;;;-141.90;100.00
5298;BME280;14738;42.668;23.250;2023-01-16T02:49:41;48628.53;;;-141.90;100.00
5298;BME280;14738;42.668;23.250;2023-01-16T02:52:22;48672.22;;;-141.90;100.00
5298;BME280;14738;42.668;23.250;2023-01-16T02:54:59;48652.38;;;-141.90;100.00
5298;BME280;14738;42.668;23.250;2023-01-16T02:57:42;48664.28;;;-141.90;100.00
5298;BME280;14738;42.668;23.250;2023-01-16T03:00:09;48658.31;;;-141.90;100.00
5298;BME280;14738;42.668;23.250;2023-01-16T03:02:35;48662.28;;;-141.90;100.00
5298;BME280;14738;42.668;23.250;2023-01-16T03:05:01;48598.75;;;-141.90;100.00
5298;BME280;14738;42.668;23.250;2023-01-16T03:07:48;48694.06;;;-141.90;100.00
5298;BME280;14738;42.668;23.250;2023-01-16T03:18:52;48632.50;;;-141.90;100.00
5298;BME280;14738;42.668;23.250;2023-01-16T03:21:41;48662.28;;;-141.90;100.00
5298;BME280;14738;42.668;23.250;2023-01-16T03:30:13;48668.25;;;-141.90;100.00
5298;BME280;14738;42.668;23.250;2023-01-16T03:32:45;48672.22;;;-141.90;100.00
5298;BME280;14738;42.668;23.250;2023-01-16T03:35:31;48648.38;;;-141.90;100.00
5298;BME280;14738;42.668;23.250;2023-01-16T03:38:02;48672.22;;;-141.90;100.00
5298;BME280;14738;42.668;23.250;2023-01-16T03:40:34;48648.38;;;-141.90;100.00
5298;BME280;14738;42.668;23.250;2023-01-16T03:45:49;48634.50;;;-141.90;100.00
5298;BME280;14738;42.668;23.250;2023-01-16T03:50:59;48662.28;;;-141.90;100.00
5298;BME280;14738;42.668;23.250;2023-01-16T03:53:33;48666.25;;;-141.90;100.00
5298;BME280;14738;42.668;23.250;2023-01-16T03:56:20;48646.41;;;-141.90;100.00
5298;BME280;14738;42.668;23.250;2023-01-16T03:58:49;48676.19;;;-141.90;100.00
5298;BME280;14738;42.668;23.250;2023-01-16T04:01:53;48638.47;;;-141.90;100.00
5298;BME280;14738;42.668;23.250;2023-01-16T04:04:34;48690.09;;;-141.90;100.00
5298;BME280;14738;42.668;23.250;2023-01-16T04:10:15;48676.19;;;-141.90;100.00
5298;BME280;14738;42.668;23.250;2023-01-16T04:12:46;48692.06;;;-141.90;100.00
5298;BME280;14738;42.668;23.250;2023-01-16T04:15:13;48660.31;;;-141.90;100.00
5298;BME280;14738;42.668;23.250;2023-01-16T04:17:41;48670.22;;;-141.90;100.00
5298;BME280;14738;42.668;23.250;2023-01-16T04:20:08;48652.38;;;-141.90;100.00
5298;BME280;14738;42.668;23.250;2023-01-16T04:22:33;48692.06;;;-141.90;100.00
5298;BME280;14738;42.668;23.250;2023-01-16T04:25:01;48652.38;;;-141.90;100.00
5298;BME280;14738;42.668;23.250;2023-01-16T04:27:27;48670.22;;;-141.90;100.00
5298;BME280;14738;42.668;23.250;2023-01-16T04:29:53;48680.16;;;-141.90;100.00
5298;BME280;14738;42.668;23.250;2023-01-16T04:32:21;48662.28;;;-141.90;100.00
5298;BME280;14738;42.668;23.250;2023-01-16T04:34:47;48664.28;;;-141.90;100.00
5298;BME280;14738;42.668;23.250;2023-01-16T04:37:14;48660.31;;;-141.90;100.00
5298;BME280;14738;42.668;23.250;2023-01-16T04:39:40;48660.31;;;-141.90;100.00
5298;BME280;14738;42.668;23.250;2023-01-16T04:42:06;48628.53;;;-141.90;100.00
5298;BME280;14738;42.668;23.250;2023-01-16T04:44:32;48642.44;;;-141.90;100.00
5298;BME280;14738;42.668;23.250;2023-01-16T04:47:00;48660.31;;;-141.90;100.00
5298;BME280;14738;42.668;23.250;2023-01-16T04:49:26;48658.31;;;-141.90;100.00
5298;BME280;14738;42.668;23.250;2023-01-16T04:51:51;48658.31;;;-141.90;100.00
5298;BME280;14738;42.668;23.250;2023-01-16T04:54:18;48656.34;;;-141.90;100.00
5298;BME280;14738;42.668;23.250;2023-01-16T04:56:44;48676.19;;;-141.90;100.00
5298;BME280;14738;42.668;23.250;2023-01-16T04:59:10;48684.13;;;-141.90;100.00
5298;BME280;14738;42.668;23.250;2023-01-16T05:01:38;48684.13;;;-141.90;100.00
5298;BME280;14738;42.668;23.250;2023-01-16T05:04:04;48684.13;;;-141.90;100.00
5298;BME280;14738;42.668;23.250;2023-01-16T05:06:31;48668.25;;;-141.90;100.00
5298;BME280;14738;42.668;23.250;2023-01-16T05:09:08;48650.38;;;-141.90;100.00
5298;BME280;14738;42.668;23.250;2023-01-16T05:11:33;48660.31;;;-141.90;100.00
5298;BME280;14738;42.668;23.250;2023-01-16T05:13:59;48702.00;;;-141.90;100.00
5298;BME280;14738;42.668;23.250;2023-01-16T05:16:26;48696.03;;;-141.90;100.00
5298;BME280;14738;42.668;23.250;2023-01-16T05:18:52;48664.28;;;-141.90;100.00
5298;BME280;14738;42.668;23.250;2023-01-16T05:21:17;48654.34;;;-141.90;100.00
5298;BME280;14738;42.668;23.250;2023-01-16T05:23:42;48680.16;;;-141.90;100.00
5298;BME280;14738;42.668;23.250;2023-01-16T05:26:08;48678.16;;;-141.90;100.00
5298;BME280;14738;42.668;23.250;2023-01-16T05:28:34;48656.34;;;-141.90;100.00
5298;BME280;14738;42.668;23.250;2023-01-16T05:31:00;48688.09;;;-141.90;100.00
5298;BME280;14738;42.668;23.250;2023-01-16T05:33:26;48684.13;;;-141.90;100.00
5298;BME280;14738;42.668;23.250;2023-01-16T05:35:53;48666.25;;;-141.90;100.00
5298;BME280;14738;42.668;23.250;2023-01-16T05:38:19;48670.22;;;-141.90;100.00
5298;BME280;14738;42.668;23.250;2023-01-16T05:40:45;48676.19;;;-141.90;100.00
5298;BME280;14738;42.668;23.250;2023-01-16T05:43:10;48692.06;;;-141.90;100.00
5298;BME280;14738;42.668;23.250;2023-01-16T05:45:36;48666.25;;;-141.90;100.00
5298;BME280;14738;42.668;23.250;2023-01-16T05:48:01;48670.22;;;-141.90;100.00
5298;BME280;14738;42.668;23.250;2023-01-16T05:50:27;48678.16;;;-141.90;100.00
5298;BME280;14738;42.668;23.250;2023-01-16T05:52:53;48660.31;;;-141.90;100.00
5298;BME280;14738;42.668;23.250;2023-01-16T05:55:18;48648.38;;;-141.90;100.00
5298;BME280;14738;42.668;23.250;2023-01-16T05:57:44;48686.13;;;-141.90;100.00
5298;BME280;14738;42.668;23.250;2023-01-16T06:00:10;48658.31;;;-141.90;100.00
5298;BME280;14738;42.668;23.250;2023-01-16T06:02:37;48662.28;;;-141.90;100.00
5298;BME280;14738;42.668;23.250;2023-01-16T06:05:03;48668.25;;;-141.90;100.00
5298;BME280;14738;42.668;23.250;2023-01-16T06:07:29;48648.38;;;-141.90;100.00
5298;BME280;14738;42.668;23.250;2023-01-16T06:09:54;48678.16;;;-141.90;100.00
5298;BME280;14738;42.668;23.250;2023-01-16T06:12:20;48680.16;;;-141.90;100.00
5298;BME280;14738;42.668;23.250;2023-01-16T06:14:46;48660.31;;;-141.90;100.00
5298;BME280;14738;42.668;23.250;2023-01-16T06:17:12;48674.19;;;-141.90;100.00
5298;BME280;14738;42.668;23.250;2023-01-16T06:19:41;48688.09;;;-141.90;100.00
5298;BME280;14738;42.668;23.250;2023-01-16T06:22:06;48658.31;;;-141.90;100.00
5298;BME280;14738;42.668;23.250;2023-01-16T06:24:32;48670.22;;;-141.90;100.00
5298;BME280;14738;42.668;23.250;2023-01-16T06:26:57;48662.28;;;-141.90;100.00
5298;BME280;14738;42.668;23.250;2023-01-16T06:29:23;48666.25;;;-141.90;100.00
5298;BME280;14738;42.668;23.250;2023-01-16T06:31:48;48666.25;;;-141.90;100.00
5298;BME280;14738;42.668;23.250;2023-01-16T06:34:14;48670.22;;;-141.90;100.00
5298;BME280;14738;42.668;23.250;2023-01-16T06:36:39;48628.53;;;-141.90;100.00
5298;BME280;14738;42.668;23.250;2023-01-16T06:39:06;48642.44;;;-141.90;100.00
5298;BME280;14738;42.668;23.250;2023-01-16T06:41:32;48656.34;;;-141.90;100.00
5298;BME280;14738;42.668;23.250;2023-01-16T06:43:57;48632.50;;;-141.90;100.00
5298;BME280;14738;42.668;23.250;2023-01-16T06:46:22;48656.34;;;-141.90;100.00
5298;BME280;14738;42.668;23.250;2023-01-16T06:48:48;48664.28;;;-141.90;100.00
5298;BME280;14738;42.668;23.250;2023-01-16T06:51:13;48650.38;;;-141.90;100.00
5298;BME280;14738;42.668;23.250;2023-01-16T06:53:39;48628.53;;;-141.90;100.00
5298;BME280;14738;42.668;23.250;2023-01-16T06:56:04;48620.59;;;-141.90;100.00
5298;BME280;14738;42.668;23.250;2023-01-16T06:58:30;48642.44;;;-141.90;100.00
5298;BME280;14738;42.668;23.250;2023-01-16T07:00:55;48608.69;;;-141.90;100.00
5298;BME280;14738;42.668;23.250;2023-01-16T07:03:22;48640.44;;;-141.90;100.00
5298;BME280;14738;42.668;23.250;2023-01-16T07:05:47;48614.63;;;-141.90;100.00
5298;BME280;14738;42.668;23.250;2023-01-16T07:08:13;48634.50;;;-141.90;100.00
5298;BME280;14738;42.668;23.250;2023-01-16T07:10:39;48624.56;;;-141.90;100.00
5298;BME280;14738;42.668;23.250;2023-01-16T07:13:05;48614.63;;;-141.90;100.00
5298;BME280;14738;42.668;23.250;2023-01-16T07:15:30;48654.34;;;-141.90;100.00
5298;BME280;14738;42.668;23.250;2023-01-16T07:18:16;48626.56;;;-141.90;100.00
5298;BME280;14738;42.668;23.250;2023-01-16T07:21:04;48618.59;;;-141.90;100.00
5298;BME280;14738;42.668;23.250;2023-01-16T07:23:55;48628.53;;;-141.90;100.00
5298;BME280;14738;42.668;23.250;2023-01-16T07:26:23;48612.66;;;-141.90;100.00
5298;BME280;14738;42.668;23.250;2023-01-16T07:28:50;48628.53;;;-141.90;100.00
5298;BME280;14738;42.668;23.250;2023-01-16T07:31:16;48626.56;;;-141.90;100.00
5298;BME280;14738;42.668;23.250;2023-01-16T07:33:41;48614.63;;;-141.90;100.00
5298;BME280;14738;42.668;23.250;2023-01-16T07:36:07;48630.53;;;-141.90;100.00
5298;BME280;14738;42.668;23.250;2023-01-16T07:38:33;48628.53;;;-141.90;100.00
5298;BME280;14738;42.668;23.250;2023-01-16T07:40:58;48622.59;;;-141.90;100.00
5298;BME280;14738;42.668;23.250;2023-01-16T07:43:23;48664.28;;;-141.90;100.00
5298;BME280;14738;42.668;23.250;2023-01-16T07:45:49;48620.59;;;-141.90;100.00
5298;BME280;14738;42.668;23.250;2023-01-16T07:48:21;48644.41;;;-141.90;100.00
5298;BME280;14738;42.668;23.250;2023-01-16T07:50:54;48638.47;;;-141.90;100.00
5298;BME280;14738;42.668;23.250;2023-01-16T07:53:22;48628.53;;;-141.90;100.00
5298;BME280;14738;42.668;23.250;2023-01-16T07:55:49;48652.38;;;-141.90;100.00
5298;BME280;14738;42.668;23.250;2023-01-16T07:58:16;48628.53;;;-141.90;100.00
5298;BME280;14738;42.668;23.250;2023-01-16T08:00:42;48660.31;;;-141.90;100.00
5298;BME280;14738;42.668;23.250;2023-01-16T08:03:08;48604.72;;;-141.90;100.00
5298;BME280;14738;42.668;23.250;2023-01-16T08:05:33;48620.59;;;-141.90;100.00
5298;BME280;14738;42.668;23.250;2023-01-16T08:07:59;48608.69;;;-141.90;100.00
5298;BME280;14738;42.668;23.250;2023-01-16T08:10:24;48620.59;;;-141.90;100.00
5298;BME280;14738;42.668;23.250;2023-01-16T08:12:50;48620.59;;;-141.90;100.00
5298;BME280;14738;42.668;23.250;2023-01-16T08:15:15;48622.59;;;-141.90;100.00
5298;BME280;14738;42.668;23.250;2023-01-16T08:17:41;48608.69;;;-141.90;100.00
5298;BME280;14738;42.668;23.250;2023-01-16T08:20:08;48624.56;;;-141.90;100.00
5298;BME280;14738;42.668;23.250;2023-01-16T08:22:34;48616.63;;;-141.90;100.00
5298;BME280;14738;42.668;23.250;2023-01-16T08:24:59;48634.50;;;-141.90;100.00
5298;BME280;14738;42.668;23.250;2023-01-16T08:27:25;48596.78;;;-141.90;100.00
5298;BME280;14738;42.668;23.250;2023-01-16T08:29:50;48630.53;;;-141.90;100.00
5298;BME280;14738;42.668;23.250;2023-01-16T08:32:15;48600.75;;;-141.90;100.00
5298;BME280;14738;42.668;23.250;2023-01-16T08:34:41;48608.69;;;-141.90;100.00
5298;BME280;14738;42.668;23.250;2023-01-16T08:37:07;48600.75;;;-141.90;100.00
5298;BME280;14738;42.668;23.250;2023-01-16T08:39:36;48612.66;;;-141.90;100.00
5298;BME280;14738;42.668;23.250;2023-01-16T08:42:01;48604.72;;;-141.90;100.00
5298;BME280;14738;42.668;23.250;2023-01-16T08:44:45;48606.69;;;-141.90;100.00
5298;BME280;14738;42.668;23.250;2023-01-16T08:47:29;48608.69;;;-141.90;100.00
5298;BME280;14738;42.668;23.250;2023-01-16T08:50:18;48594.78;;;-141.90;100.00
5298;BME280;14738;42.668;23.250;2023-01-16T08:53:03;48624.56;;;-141.90;100.00
5298;BME280;14738;42.668;23.250;2023-01-16T08:55:29;48624.56;;;-141.90;100.00
5298;BME280;14738;42.668;23.250;2023-01-16T08:57:58;48598.75;;;-141.90;100.00
5298;BME280;14738;42.668;23.250;2023-01-16T09:00:26;48600.75;;;-141.90;100.00
5298;BME280;14738;42.668;23.250;2023-01-16T09:02:51;48630.53;;;-141.90;100.00
5298;BME280;14738;42.668;23.250;2023-01-16T09:05:18;48622.59;;;-141.90;100.00
5298;BME280;14738;42.668;23.250;2023-01-16T09:07:43;48588.84;;;-141.90;100.00
5298;BME280;14738;42.668;23.250;2023-01-16T09:10:09;48602.72;;;-141.90;100.00
5298;BME280;14738;42.668;23.250;2023-01-16T09:12:35;48608.69;;;-141.90;100.00
5298;BME280;14738;42.668;23.250;2023-01-16T09:15:19;48600.75;;;-141.90;100.00
5298;BME280;14738;42.668;23.250;2023-01-16T09:17:44;48604.72;;;-141.90;100.00
5298;BME280;14738;42.668;23.250;2023-01-16T09:20:10;48584.84;;;-141.90;100.00
5298;BME280;14738;42.668;23.250;2023-01-16T09:22:35;48594.78;;;-141.90;100.00
5298;BME280;14738;42.668;23.250;2023-01-16T09:25:01;48618.59;;;-141.90;100.00
5298;BME280;14738;42.668;23.250;2023-01-16T09:27:26;48565.00;;;-141.90;100.00
5298;BME280;14738;42.668;23.250;2023-01-16T09:29:52;48594.78;;;-141.90;100.00
5298;BME280;14738;42.668;23.250;2023-01-16T09:32:18;48596.78;;;-141.90;100.00
5298;BME280;14738;42.668;23.250;2023-01-16T09:34:44;48578.91;;;-141.90;100.00
5298;BME280;14738;42.668;23.250;2023-01-16T09:37:10;48563.03;;;-141.90;100.00
5298;BME280;14738;42.668;23.250;2023-01-16T09:39:36;48588.84;;;-141.90;100.00
5298;BME280;14738;42.668;23.250;2023-01-16T09:42:47;48576.91;;;-141.90;100.00
5298;BME280;14738;42.668;23.250;2023-01-16T09:45:25;48525.31;;;-141.90;100.00
5298;BME280;14738;42.668;23.250;2023-01-16T09:48:05;48574.94;;;-141.90;100.00
5298;BME280;14738;42.668;23.250;2023-01-16T09:50:38;48565.00;;;-141.90;100.00
5298;BME280;14738;42.668;23.250;2023-01-16T09:53:13;48535.22;;;-141.90;100.00
5298;BME280;14738;42.668;23.250;2023-01-16T09:56:01;48553.09;;;-141.90;100.00
5298;BME280;14738;42.668;23.250;2023-01-16T09:58:57;48576.91;;;-141.90;100.00
5298;BME280;14738;42.668;23.250;2023-01-16T10:01:31;48576.91;;;-141.90;100.00
5298;BME280;14738;42.668;23.250;2023-01-16T10:04:19;48572.94;;;-141.90;100.00
5298;BME280;14738;42.668;23.250;2023-01-16T10:12:28;48568.97;;;-141.90;100.00
5298;BME280;14738;42.668;23.250;2023-01-16T10:20:37;48561.03;;;-141.90;100.00
5298;BME280;14738;42.668;23.250;2023-01-16T10:26:00;48572.94;;;-141.90;100.00
5298;BME280;14738;42.668;23.250;2023-01-16T10:29:17;48539.19;;;-141.90;100.00
5298;BME280;14738;42.668;23.250;2023-01-16T10:31:30;48586.84;;;-141.90;100.00
5298;BME280;14738;42.668;23.250;2023-01-16T10:34:10;48582.88;;;-141.90;100.00
5298;BME280;14738;42.668;23.250;2023-01-16T10:36:40;48545.16;;;-141.90;100.00
5298;BME280;14738;42.668;23.250;2023-01-16T10:39:09;48543.16;;;-141.90;100.00
5298;BME280;14738;42.668;23.250;2023-01-16T10:41:40;48598.75;;;-141.90;100.00
5298;BME280;14738;42.668;23.250;2023-01-16T10:44:32;48563.03;;;-141.90;100.00
5298;BME280;14738;42.668;23.250;2023-01-16T10:47:19;48567.00;;;-141.90;100.00
5298;BME280;14738;42.668;23.250;2023-01-16T10:50:05;48561.03;;;-141.90;100.00
5298;BME280;14738;42.668;23.250;2023-01-16T10:52:32;48588.84;;;-141.90;100.00
5298;BME280;14738;42.668;23.250;2023-01-16T10:54:59;48592.81;;;-141.90;100.00
5298;BME280;14738;42.668;23.250;2023-01-16T10:57:26;48572.94;;;-141.90;100.00
5298;BME280;14738;42.668;23.250;2023-01-16T10:59:57;48586.84;;;-141.90;100.00
5298;BME280;14738;42.668;23.250;2023-01-16T11:02:46;48565.00;;;-141.90;100.00
5298;BME280;14738;42.668;23.250;2023-01-16T11:05:32;48533.25;;;-141.90;100.00
5298;BME280;14738;42.668;23.250;2023-01-16T11:08:18;48576.91;;;-141.90;100.00
5298;BME280;14738;42.668;23.250;2023-01-16T11:10:49;48580.88;;;-141.90;100.00
5298;BME280;14738;42.668;23.250;2023-01-16T11:13:23;48567.00;;;-141.90;100.00
5298;BME280;14738;42.668;23.250;2023-01-16T11:18:56;48588.84;;;-141.90;100.00
5298;BME280;14738;42.668;23.250;2023-01-16T11:21:30;48580.88;;;-141.90;100.00
5298;BME280;14738;42.668;23.250;2023-01-16T11:24:19;48557.06;;;-141.90;100.00
5298;BME280;14738;42.668;23.250;2023-01-16T11:26:49;48582.88;;;-141.90;100.00
5298;BME280;14738;42.668;23.250;2023-01-16T11:29:16;48582.88;;;-141.90;100.00
5298;BME280;14738;42.668;23.250;2023-01-16T11:31:48;48572.94;;;-141.90;100.00
5298;BME280;14738;42.668;23.250;2023-01-16T11:34:15;48553.09;;;-141.90;100.00
5298;BME280;14738;42.668;23.250;2023-01-16T11:36:41;48561.03;;;-141.90;100.00
5298;BME280;14738;42.668;23.250;2023-01-16T11:39:19;48553.09;;;-141.90;100.00
5298;BME280;14738;42.668;23.250;2023-01-16T11:41:51;48572.94;;;-141.90;100.00
5298;BME280;14738;42.668;23.250;2023-01-16T11:44:32;48545.16;;;-141.90;100.00
5298;BME280;14738;42.668;23.250;2023-01-16T11:47:26;48565.00;;;-141.90;100.00
5298;BME280;14738;42.668;23.250;2023-01-16T11:49:52;48525.31;;;-141.90;100.00
5298;BME280;14738;42.668;23.250;2023-01-16T11:52:21;48572.94;;;-141.90;100.00
5298;BME280;14738;42.668;23.250;2023-01-16T11:55:01;48574.94;;;-141.90;100.00
5298;BME280;14738;42.668;23.250;2023-01-16T12:00:03;48549.13;;;-141.90;100.00
5298;BME280;14738;42.668;23.250;2023-01-16T12:13:55;48547.13;;;-141.90;100.00
5298;BME280;14738;42.668;23.250;2023-01-16T12:19:50;48555.09;;;-141.90;100.00
5298;BME280;14738;42.668;23.250;2023-01-16T12:31:48;48545.16;;;-141.90;100.00
5298;BME280;14738;42.668;23.250;2023-01-16T12:48:17;48545.16;;;-141.90;100.00
5298;BME280;14738;42.668;23.250;2023-01-16T12:58:54;48565.00;;;-141.90;100.00
5298;BME280;14738;42.668;23.250;2023-01-16T13:01:23;48555.09;;;-141.90;100.00
5298;BME280;14738;42.668;23.250;2023-01-16T13:04:19;48529.28;;;-141.90;100.00
5298;BME280;14738;42.668;23.250;2023-01-16T13:06:52;48557.06;;;-141.90;100.00
5298;BME280;14738;42.668;23.250;2023-01-16T13:12:27;48570.97;;;-141.90;100.00
5298;BME280;14738;42.668;23.250;2023-01-16T13:15:22;48557.06;;;-141.90;100.00
5298;BME280;14738;42.668;23.250;2023-01-16T13:17:54;48588.84;;;-141.90;100.00
5298;BME280;14738;42.668;23.250;2023-01-16T13:20:22;48596.78;;;-141.90;100.00
5298;BME280;14738;42.668;23.250;2023-01-16T13:22:58;48588.84;;;-141.90;100.00
5298;BME280;14738;42.668;23.250;2023-01-16T13:25:32;48567.00;;;-141.90;100.00
5298;BME280;14738;42.668;23.250;2023-01-16T13:28:07;48594.78;;;-141.90;100.00
5298;BME280;14738;42.668;23.250;2023-01-16T13:30:38;48578.91;;;-141.90;100.00
5298;BME280;14738;42.668;23.250;2023-01-16T13:33:10;48547.13;;;-141.90;100.00
5298;BME280;14738;42.668;23.250;2023-01-16T13:36:04;48555.09;;;-141.90;100.00
5298;BME280;14738;42.668;23.250;2023-01-16T13:41:26;48557.06;;;-141.90;100.00
5298;BME280;14738;42.668;23.250;2023-01-16T13:46:44;48557.06;;;-141.90;100.00
5298;BME280;14738;42.668;23.250;2023-01-16T13:49:23;48612.66;;;-141.90;100.00
5298;BME280;14738;42.668;23.250;2023-01-16T13:51:51;48576.91;;;-141.90;100.00
5298;BME280;14738;42.668;23.250;2023-01-16T13:54:23;48555.09;;;-141.90;100.00
5298;BME280;14738;42.668;23.250;2023-01-16T13:56:58;48592.81;;;-141.90;100.00
5298;BME280;14738;42.668;23.250;2023-01-16T13:59:52;48584.84;;;-141.90;100.00
5298;BME280;14738;42.668;23.250;2023-01-16T14:05:41;48565.00;;;-141.90;100.00
5298;BME280;14738;42.668;23.250;2023-01-16T14:11:24;48553.09;;;-141.90;100.00
5298;BME280;14738;42.668;23.250;2023-01-16T14:17:04;48570.97;;;-141.90;100.00
5298;BME280;14738;42.668;23.250;2023-01-16T14:19:36;48545.16;;;-141.90;100.00
5298;BME280;14738;42.668;23.250;2023-01-16T14:22:02;48574.94;;;-141.90;100.00
5298;BME280;14738;42.668;23.250;2023-01-16T14:24:57;48590.81;;;-141.90;100.00
5298;BME280;14738;42.668;23.250;2023-01-16T14:27:41;48596.78;;;-141.90;100.00
5298;BME280;14738;42.668;23.250;2023-01-16T14:30:18;48612.66;;;-141.90;100.00
5298;BME280;14738;42.668;23.250;2023-01-16T14:32:47;48543.16;;;-141.90;100.00
5298;BME280;14738;42.668;23.250;2023-01-16T14:35:26;48572.94;;;-141.90;100.00
5298;BME280;14738;42.668;23.250;2023-01-16T14:37:59;48568.97;;;-141.90;100.00
5298;BME280;14738;42.668;23.250;2023-01-16T14:40:29;48570.97;;;-141.90;100.00
5298;BME280;14738;42.668;23.250;2023-01-16T14:43:30;48582.88;;;-141.90;100.00
5298;BME280;14738;42.668;23.250;2023-01-16T14:49:40;48568.97;;;-141.90;100.00
5298;BME280;14738;42.668;23.250;2023-01-16T14:55:23;48580.88;;;-141.90;100.00
5298;BME280;14738;42.668;23.250;2023-01-16T14:57:50;48616.63;;;-141.90;100.00
5298;BME280;14738;42.668;23.250;2023-01-16T15:00:18;48567.00;;;-141.90;100.00
5298;BME280;14738;42.668;23.250;2023-01-16T15:02:58;48570.97;;;-141.90;100.00
5298;BME280;14738;42.668;23.250;2023-01-16T15:05:34;48602.72;;;-141.90;100.00
5298;BME280;14738;42.668;23.250;2023-01-16T15:08:21;48578.91;;;-141.90;100.00
5298;BME280;14738;42.668;23.250;2023-01-16T15:10:50;48588.84;;;-141.90;100.00